createdAt,value
2018-01-24T00:01:33.355Z,101539.45
2018-01-24T00:04:07.269Z,101536.31
2018-01-24T00:06:39.001Z,101530.39
2018-01-24T00:09:09.548Z,101533.05
2018-01-24T00:11:40.259Z,101528.63
2018-01-24T00:14:11.822Z,101527.92
2018-01-24T00:16:44.416Z,101527.38
2018-01-24T00:19:16.684Z,101525.63
2018-01-24T00:21:50.375Z,101519.36
2018-01-24T00:24:21.228Z,101478.63
2018-01-24T00:26:54.265Z,101512.20
2018-01-24T00:29:26.404Z,101510.13
2018-01-24T00:32:00.012Z,101512.36
2018-01-24T00:34:31.426Z,101500.53
2018-01-24T00:37:02.065Z,101487.73
2018-01-24T00:39:33.404Z,101492.98
2018-01-24T00:42:04.072Z,101491.17
2018-01-24T00:44:35.517Z,101490.15
2018-01-24T00:47:06.755Z,101487.87
2018-01-24T00:49:37.532Z,101490.52
2018-01-24T00:52:09.109Z,101491.04
2018-01-24T00:54:40.142Z,101486.38
2018-01-24T00:57:11.674Z,101488.42
2018-01-24T00:59:43.026Z,101494.32
2018-01-24T01:02:13.950Z,101486.75
2018-01-24T01:04:44.571Z,101491.87
2018-01-24T01:07:15.336Z,101488.52
2018-01-24T01:09:46.762Z,101488.47
2018-01-24T01:12:17.523Z,101485.21
2018-01-24T01:14:49.547Z,101484.01
2018-01-24T01:17:21.724Z,101473.89
2018-01-24T01:19:53.592Z,101473.52
2018-01-24T01:22:24.823Z,101473.91
2018-01-24T01:24:55.927Z,101473.00
2018-01-24T01:27:26.686Z,101476.73
2018-01-24T01:29:58.348Z,101476.53
2018-01-24T01:32:31.179Z,101465.31
2018-01-24T01:35:03.170Z,101473.45
2018-01-24T01:37:34.164Z,101476.11
2018-01-24T01:40:05.463Z,101469.67
2018-01-24T01:42:36.322Z,101462.08
2018-01-24T01:45:07.803Z,101461.80
2018-01-24T01:47:39.193Z,101465.44
2018-01-24T01:50:10.833Z,101457.56
2018-01-24T01:52:42.118Z,101459.81
2018-01-24T01:55:12.894Z,101464.31
2018-01-24T01:57:43.695Z,101467.80
2018-01-24T02:00:16.763Z,101472.66
2018-01-24T02:02:49.197Z,101466.11
2018-01-24T02:05:19.873Z,101465.13
2018-01-24T02:07:52.682Z,101470.67
2018-01-24T02:10:23.461Z,101459.53
2018-01-24T02:12:54.926Z,101440.85
2018-01-24T02:15:26.356Z,101460.59
2018-01-24T02:17:57.342Z,101462.23
2018-01-24T02:20:28.829Z,101456.84
2018-01-24T02:23:00.912Z,101454.89
2018-01-24T02:25:31.940Z,101441.46
2018-01-24T02:28:03.570Z,101453.25
2018-01-24T02:30:36.999Z,101446.97
2018-01-24T02:33:08.176Z,101458.66
2018-01-24T02:35:39.307Z,101448.27
2018-01-24T02:38:14.416Z,101449.09
2018-01-24T02:40:45.378Z,101446.42
2018-01-24T02:43:16.849Z,101443.95
2018-01-24T02:45:48.934Z,101440.59
2018-01-24T02:48:20.173Z,101447.09
2018-01-24T02:50:50.969Z,101440.31
2018-01-24T02:53:21.612Z,101447.39
2018-01-24T02:55:52.630Z,101434.64
2018-01-24T02:58:23.523Z,101441.35
2018-01-24T03:00:55.742Z,101422.53
2018-01-24T03:03:26.842Z,101428.31
2018-01-24T03:05:58.043Z,101424.39
2018-01-24T03:08:28.732Z,101425.03
2018-01-24T03:11:01.318Z,101433.27
2018-01-24T03:13:32.253Z,101430.84
2018-01-24T03:16:03.230Z,101432.20
2018-01-24T03:18:34.234Z,101433.82
2018-01-24T03:21:05.137Z,101431.79
2018-01-24T03:23:35.881Z,101429.41
2018-01-24T03:26:07.172Z,101434.39
2018-01-24T03:28:38.006Z,101431.17
2018-01-24T03:31:09.806Z,101435.05
2018-01-24T03:33:42.032Z,101433.56
2018-01-24T03:36:12.801Z,101427.45
2018-01-24T03:38:43.939Z,101422.64
2018-01-24T03:41:14.635Z,101421.40
2018-01-24T03:43:46.582Z,101425.45
2018-01-24T03:46:18.039Z,101409.84
2018-01-24T03:48:49.435Z,101409.70
2018-01-24T03:51:20.382Z,101420.47
2018-01-24T03:53:51.937Z,101416.98
2018-01-24T03:56:23.777Z,101420.61
2018-01-24T03:58:55.804Z,101417.48
2018-01-24T04:01:26.742Z,101413.16
2018-01-24T04:03:57.544Z,101407.79
2018-01-24T04:06:28.585Z,101414.25
2018-01-24T04:09:00.146Z,101416.64
2018-01-24T04:11:31.048Z,101407.55
2018-01-24T04:14:02.078Z,101403.37
2018-01-24T04:16:33.029Z,101410.67
2018-01-24T04:19:05.343Z,101412.92
2018-01-24T04:21:37.267Z,101405.31
2018-01-24T04:24:08.252Z,101411.17
2018-01-24T04:26:38.956Z,101408.16
2018-01-24T04:29:10.045Z,101407.38
2018-01-24T04:31:40.954Z,101409.44
2018-01-24T04:34:11.924Z,101401.28
2018-01-24T04:36:43.191Z,101402.88
2018-01-24T04:39:13.881Z,101398.64
2018-01-24T04:41:44.866Z,101404.44
2018-01-24T04:44:16.030Z,101404.38
2018-01-24T04:46:47.070Z,101396.93
2018-01-24T04:49:20.065Z,101398.09
2018-01-24T04:51:52.237Z,101394.20
2018-01-24T04:54:23.633Z,101400.14
2018-01-24T04:56:54.739Z,101396.08
2018-01-24T04:59:25.925Z,101389.66
2018-01-24T05:01:57.908Z,101394.72
2018-01-24T05:04:29.184Z,101396.36
2018-01-24T05:07:01.793Z,101392.91
2018-01-24T05:09:33.104Z,101389.11
2018-01-24T05:12:03.851Z,101387.98
2018-01-24T05:14:35.148Z,101386.16
2018-01-24T05:17:06.410Z,101383.44
2018-01-24T05:19:37.170Z,101386.48
2018-01-24T05:22:08.301Z,101386.09
2018-01-24T05:24:39.433Z,101392.34
2018-01-24T05:27:10.048Z,101394.69
2018-01-24T05:29:40.726Z,101390.33
2018-01-24T05:32:11.986Z,101379.95
2018-01-24T05:34:42.727Z,101389.12
2018-01-24T05:37:13.430Z,101381.64
2018-01-24T05:39:45.633Z,101383.83
2018-01-24T05:42:16.946Z,101379.85
2018-01-24T05:44:49.130Z,101382.42
2018-01-24T05:47:20.024Z,101362.36
2018-01-24T05:49:50.893Z,101366.30
2018-01-24T05:52:22.066Z,101365.29
2018-01-24T05:54:53.703Z,101364.22
2018-01-24T05:57:24.577Z,101364.60
2018-01-24T05:59:55.302Z,101367.89
2018-01-24T06:02:27.179Z,101371.27
2018-01-24T06:05:04.271Z,101363.68
2018-01-24T06:07:37.460Z,101370.56
2018-01-24T06:10:09.759Z,101357.58
2018-01-24T06:12:40.832Z,101369.09
2018-01-24T06:15:15.992Z,101364.48
2018-01-24T06:17:52.122Z,101361.38
2018-01-24T06:20:26.524Z,101347.31
2018-01-24T06:22:58.541Z,101355.11
2018-01-24T06:25:31.981Z,101369.34
2018-01-24T06:28:04.731Z,101369.95
2018-01-24T06:31:01.808Z,101366.66
2018-01-24T06:33:32.667Z,101366.17
2018-01-24T06:36:03.921Z,101358.82
2018-01-24T06:38:35.914Z,101360.04
2018-01-24T06:41:06.966Z,101363.45
2018-01-24T06:43:37.964Z,101364.16
2018-01-24T06:46:09.856Z,101367.95
2018-01-24T06:48:40.815Z,101373.06
2018-01-24T06:51:12.693Z,101379.67
2018-01-24T06:53:43.715Z,101370.94
2018-01-24T06:56:14.760Z,101368.07
2018-01-24T06:58:46.021Z,101377.55
2018-01-24T07:01:16.882Z,101366.72
2018-01-24T07:03:49.850Z,101383.55
2018-01-24T07:06:21.431Z,101378.03
2018-01-24T07:08:52.650Z,101377.58
2018-01-24T07:11:26.667Z,101362.07
2018-01-24T07:15:04.990Z,101369.64
2018-01-24T07:17:36.481Z,101354.72
2018-01-24T07:20:09.680Z,101369.86
2018-01-24T07:22:40.870Z,101372.14
2018-01-24T07:25:14.002Z,101368.95
2018-01-24T07:27:45.513Z,101365.53
2018-01-24T07:30:20.661Z,101369.23
2018-01-24T07:32:53.014Z,101370.25
2018-01-24T07:35:26.576Z,101366.86
2018-01-24T07:38:00.032Z,101370.67
2018-01-24T07:40:31.198Z,101368.53
2018-01-24T07:43:03.090Z,101359.66
2018-01-24T07:48:08.019Z,101361.44
2018-01-24T07:50:39.000Z,101343.01
2018-01-24T07:53:11.848Z,101352.38
2018-01-24T07:55:50.808Z,101344.56
2018-01-24T07:58:22.412Z,101348.63
2018-01-24T08:00:56.850Z,101320.64
2018-01-24T08:03:29.115Z,101348.83
2018-01-24T08:06:01.038Z,101334.55
2018-01-24T08:08:31.662Z,101353.59
2018-01-24T08:11:08.674Z,101343.91
2018-01-24T08:13:39.481Z,101328.66
2018-01-24T08:16:11.146Z,101332.98
2018-01-24T08:18:47.553Z,101343.33
2018-01-24T08:21:20.871Z,101309.21
2018-01-24T08:24:16.386Z,101322.16
2018-01-24T08:26:54.441Z,101312.15
2018-01-24T08:29:30.383Z,101310.67
2018-01-24T08:32:03.862Z,101301.61
2018-01-24T08:34:37.458Z,101314.55
2018-01-24T08:37:09.141Z,101316.58
2018-01-24T08:39:41.069Z,101319.37
2018-01-24T08:42:16.160Z,101314.55
2018-01-24T08:44:50.663Z,101309.69
2018-01-24T08:47:22.876Z,101305.91
2018-01-24T09:05:47.139Z,101295.97
2018-01-24T09:08:29.902Z,101295.20
2018-01-24T09:11:03.627Z,101289.76
2018-01-24T09:17:09.054Z,101291.13
2018-01-24T09:19:41.171Z,101294.22
2018-01-24T09:22:15.485Z,101279.14
2018-01-24T09:24:49.852Z,101286.41
2018-01-24T09:27:23.603Z,101274.79
2018-01-24T09:30:26.277Z,101274.02
2018-01-24T09:33:10.582Z,101269.20
2018-01-24T09:35:44.178Z,101264.78
2018-01-24T09:38:20.457Z,101261.48
2018-01-24T09:40:55.781Z,101254.14
2018-01-24T09:43:29.962Z,101253.22
2018-01-24T09:46:01.024Z,101251.36
2018-01-24T09:48:31.620Z,101260.56
2018-01-24T09:51:04.038Z,101247.87
2018-01-24T09:53:50.219Z,101253.48
2018-01-24T09:56:23.630Z,101252.89
2018-01-24T09:58:56.985Z,101237.81
2018-01-24T10:01:30.409Z,101240.22
2018-01-24T10:04:09.487Z,101247.00
2018-01-24T10:06:41.974Z,101236.53
2018-01-24T10:09:16.429Z,101207.02
2018-01-24T10:11:49.483Z,101232.94
2018-01-24T10:14:21.291Z,101226.27
2018-01-24T10:16:52.193Z,101228.03
2018-01-24T10:19:23.406Z,101233.16
2018-01-24T10:22:01.460Z,101227.89
2018-01-24T10:24:32.672Z,101213.12
2018-01-24T10:27:05.989Z,101214.14
2018-01-24T10:29:38.605Z,101210.16
2018-01-24T10:32:13.546Z,101202.37
2018-01-24T10:34:48.709Z,101202.92
2018-01-24T10:37:27.211Z,101190.16
2018-01-24T10:40:02.803Z,101188.98
2018-01-24T10:42:41.683Z,101188.22
2018-01-24T10:45:21.541Z,101183.66
2018-01-24T10:47:55.206Z,101185.98
2018-01-24T10:50:32.458Z,101170.80
2018-01-24T10:53:08.079Z,101128.07
2018-01-24T10:55:39.253Z,101174.77
2018-01-24T10:58:10.664Z,101161.47
2018-01-24T11:00:43.263Z,101157.11
2018-01-24T11:03:14.631Z,101134.11
2018-01-24T11:05:48.426Z,101150.18
2018-01-24T11:08:20.753Z,101147.50
2018-01-24T11:10:52.227Z,101140.23
2018-01-24T11:13:24.873Z,101133.20
2018-01-24T11:15:58.241Z,101133.84
2018-01-24T11:21:06.934Z,101130.81
2018-01-24T11:23:45.158Z,101125.06
2018-01-24T11:26:20.043Z,101128.07
2018-01-24T11:28:52.858Z,101116.44
2018-01-24T11:31:25.180Z,101116.13
2018-01-24T11:33:57.810Z,101114.31
2018-01-24T11:36:33.057Z,101104.00
2018-01-24T11:39:05.304Z,101103.77
2018-01-24T11:41:38.327Z,101100.22
2018-01-24T11:44:14.724Z,101100.68
2018-01-24T11:46:51.048Z,101099.09
2018-01-24T11:49:24.226Z,101064.84
2018-01-24T11:51:57.151Z,101079.80
2018-01-24T11:54:32.403Z,101080.72
2018-01-24T11:57:08.884Z,101080.28
2018-01-24T11:59:43.164Z,101067.41
2018-01-24T12:02:18.931Z,101068.94
2018-01-24T12:04:55.077Z,101048.77
2018-01-24T12:07:28.688Z,101050.89
2018-01-24T12:10:05.578Z,101040.53
2018-01-24T12:12:38.559Z,101046.00
2018-01-24T12:15:16.258Z,101033.23
2018-01-24T12:17:51.669Z,101040.36
2018-01-24T12:20:29.028Z,101034.13
2018-01-24T12:23:01.334Z,101032.98
2018-01-24T12:25:36.080Z,101019.95
2018-01-24T12:28:09.876Z,101022.30
2018-01-24T12:30:43.209Z,101029.51
2018-01-24T12:33:16.896Z,101028.67
2018-01-24T12:35:50.552Z,101007.54
2018-01-24T12:38:24.216Z,101012.95
2018-01-24T12:40:59.091Z,101004.42
2018-01-24T12:43:31.954Z,100996.05
2018-01-24T12:46:03.825Z,100989.34
2018-01-24T12:48:36.699Z,100984.41
2018-01-24T12:51:12.932Z,100983.82
2018-01-24T12:53:45.207Z,100985.25
2018-01-24T12:56:17.954Z,100957.86
2018-01-24T12:58:51.645Z,100921.80
2018-01-24T13:01:27.488Z,100970.45
2018-01-24T13:04:06.215Z,100969.21
2018-01-24T13:06:41.053Z,100963.99
2018-01-24T13:09:15.492Z,100965.58
2018-01-24T13:11:48.804Z,100962.66
2018-01-24T13:14:23.796Z,100960.72
2018-01-24T13:17:01.601Z,100946.03
2018-01-24T13:19:41.921Z,100953.84
2018-01-24T13:22:15.852Z,100944.85
2018-01-24T13:24:50.616Z,100953.08
2018-01-24T13:27:27.554Z,100940.64
2018-01-24T13:30:09.043Z,100931.59
2018-01-24T13:32:45.655Z,100927.38
2018-01-24T13:35:20.278Z,100931.00
2018-01-24T13:37:56.600Z,100932.34
2018-01-24T13:40:31.252Z,100917.32
2018-01-24T13:43:03.968Z,100906.52
2018-01-24T13:45:45.853Z,100915.20
2018-01-24T13:48:21.833Z,100914.96
2018-01-24T13:50:57.562Z,100902.27
2018-01-24T13:53:31.327Z,100888.05
2018-01-24T13:56:07.630Z,100894.67
2018-01-24T13:58:47.382Z,100881.64
2018-01-24T14:01:23.079Z,100891.58
2018-01-24T14:03:55.802Z,100878.28
2018-01-24T14:06:36.289Z,100877.13
2018-01-24T14:12:08.907Z,100873.59
2018-01-24T14:14:40.964Z,100879.38
2018-01-24T14:26:04.732Z,100868.11
2018-01-24T14:28:39.395Z,100862.72
2018-01-24T14:31:13.216Z,100866.98
2018-01-24T14:33:46.787Z,100871.77
2018-01-24T14:36:22.134Z,100875.73
2018-01-24T14:39:01.403Z,100860.54
2018-01-24T14:41:43.326Z,100873.36
2018-01-24T14:44:17.333Z,100862.11
2018-01-24T14:46:51.423Z,100876.59
2018-01-24T14:49:26.214Z,100877.23
2018-01-24T14:51:58.673Z,100873.70
2018-01-24T14:54:32.782Z,100881.15
2018-01-24T14:57:05.246Z,100888.23
2018-01-24T14:59:42.935Z,100887.36
2018-01-24T15:02:17.902Z,100898.52
2018-01-24T15:04:50.523Z,100897.55
2018-01-24T15:07:35.192Z,100895.91
2018-01-24T15:10:09.667Z,100898.41
2018-01-24T15:12:42.793Z,100900.28
2018-01-24T15:15:20.119Z,100901.59
2018-01-24T15:17:52.262Z,100894.84
2018-01-24T15:20:28.039Z,100900.33
2018-01-24T15:23:02.478Z,100902.05
2018-01-24T15:25:34.051Z,100903.47
2018-01-24T15:28:06.492Z,100893.42
2018-01-24T15:30:40.208Z,100894.41
2018-01-24T15:33:20.781Z,100888.09
2018-01-24T15:36:01.965Z,100831.02
2018-01-24T15:38:38.770Z,100894.50
2018-01-24T15:41:17.154Z,100891.20
2018-01-24T15:43:50.640Z,100895.38
2018-01-24T15:46:26.315Z,100881.22
2018-01-24T15:49:01.605Z,100882.30
2018-01-24T15:51:39.573Z,100886.86
2018-01-24T15:54:14.391Z,100882.55
2018-01-24T15:57:03.777Z,100876.32
2018-01-24T15:59:35.907Z,100879.92
2018-01-24T16:02:07.789Z,100864.86
2018-01-24T16:04:42.213Z,100872.91
2018-01-24T16:07:15.503Z,100848.91
2018-01-24T16:09:50.761Z,100860.67
2018-01-24T16:12:23.173Z,100864.90
2018-01-24T16:14:57.778Z,100865.40
2018-01-24T16:17:37.922Z,100869.62
2018-01-24T16:20:14.964Z,100865.94
2018-01-24T16:25:24.596Z,100870.53
2018-01-24T16:27:59.079Z,100861.36
2018-01-24T16:30:34.767Z,100869.11
2018-01-24T16:33:14.416Z,100861.82
2018-01-24T16:35:48.405Z,100861.47
2018-01-24T16:38:21.301Z,100858.78
2018-01-24T16:41:05.032Z,100859.12
2018-01-24T16:43:38.582Z,100852.30
2018-01-24T16:46:12.959Z,100843.95
2018-01-24T16:48:48.097Z,100852.82
2018-01-24T16:51:24.827Z,100840.52
2018-01-24T16:53:59.952Z,100853.42
2018-01-24T16:56:37.355Z,100838.59
2018-01-24T16:59:13.617Z,100837.80
2018-01-24T17:01:54.477Z,100820.13
2018-01-24T17:04:27.475Z,100825.64
2018-01-24T17:07:00.516Z,100817.75
2018-01-24T17:09:37.728Z,100821.31
2018-01-24T17:12:13.668Z,100826.98
2018-01-24T17:14:50.170Z,100834.92
2018-01-24T17:17:27.778Z,100803.80
2018-01-24T17:20:01.130Z,100804.65
2018-01-24T17:22:37.017Z,100821.73
2018-01-24T17:25:12.087Z,100816.68
2018-01-24T17:27:47.641Z,100792.00
2018-01-24T17:30:25.260Z,100808.94
2018-01-24T17:33:00.794Z,100797.24
2018-01-24T17:35:36.624Z,100800.39
2018-01-24T17:38:13.135Z,100794.30
2018-01-24T17:40:48.450Z,100790.69
2018-01-24T17:43:25.018Z,100789.73
2018-01-24T17:46:03.090Z,100790.47
2018-01-24T17:48:41.758Z,100781.29
2018-01-24T17:51:18.727Z,100783.86
2018-01-24T17:53:53.347Z,100772.48
2018-01-24T17:56:30.944Z,100776.66
2018-01-24T17:59:08.385Z,100774.94
2018-01-24T18:01:43.296Z,100751.31
2018-01-24T18:04:19.385Z,100772.23
2018-01-24T18:06:53.563Z,100771.23
2018-01-24T18:09:29.406Z,100773.64
2018-01-24T18:12:05.621Z,100764.98
2018-01-24T18:14:56.603Z,100762.95
2018-01-24T18:17:34.845Z,100761.12
2018-01-24T18:20:10.728Z,100767.75
2018-01-24T18:22:50.223Z,100767.28
2018-01-24T18:25:26.525Z,100766.75
2018-01-24T18:28:08.515Z,100757.21
2018-01-24T18:31:00.072Z,100756.30
2018-01-24T18:33:39.850Z,100755.95
2018-01-24T18:36:21.665Z,100753.11
2018-01-24T18:38:58.682Z,100747.56
2018-01-24T18:41:46.408Z,100726.03
2018-01-24T18:44:30.744Z,100713.54
2018-01-24T18:47:08.459Z,100714.61
2018-01-24T18:49:47.748Z,100716.19
2018-01-24T18:52:26.161Z,100725.83
2018-01-24T18:55:04.608Z,100723.11
2018-01-24T18:57:42.525Z,100716.60
2018-01-24T19:00:24.526Z,100712.69
2018-01-24T19:03:05.530Z,100718.16
2018-01-24T19:05:45.734Z,100731.00
2018-01-24T19:08:24.644Z,100725.92
2018-01-24T19:11:07.048Z,100729.53
2018-01-24T19:13:48.355Z,100736.30
2018-01-24T19:16:30.367Z,100733.28
2018-01-24T19:19:07.148Z,100731.77
2018-01-24T19:21:45.377Z,100725.77
2018-01-24T19:24:23.823Z,100725.41
2018-01-24T19:27:03.963Z,100730.44
2018-01-24T19:33:08.030Z,100735.94
2018-01-24T19:35:52.604Z,100734.27
2018-01-24T19:38:33.663Z,100729.25
2018-01-24T19:41:12.194Z,100724.78
2018-01-24T19:43:49.600Z,100724.44
2018-01-24T19:46:26.693Z,100714.91
2018-01-24T19:49:05.520Z,100712.73
2018-01-24T19:51:44.675Z,100709.27
2018-01-24T19:54:24.706Z,100718.16
2018-01-24T19:57:13.634Z,100707.33
2018-01-24T19:59:52.439Z,100704.55
2018-01-24T20:02:27.319Z,100702.98
2018-01-24T20:05:06.909Z,100701.95
2018-01-24T20:07:39.650Z,100703.08
2018-01-24T20:10:19.601Z,100706.59
2018-01-24T20:12:53.814Z,100694.89
2018-01-24T20:15:32.612Z,100691.95
2018-01-24T20:18:05.368Z,100693.08
2018-01-24T20:20:42.343Z,100696.50
2018-01-24T20:23:17.440Z,100690.05
2018-01-24T20:25:53.075Z,100687.92
2018-01-24T20:28:26.549Z,100695.90
2018-01-24T20:30:58.897Z,100697.31
2018-01-24T20:33:34.569Z,100687.16
2018-01-24T20:36:09.058Z,100684.96
2018-01-24T20:38:47.076Z,100687.52
2018-01-24T20:41:27.347Z,100681.78
2018-01-24T20:44:01.469Z,100665.84
2018-01-24T20:46:35.810Z,100681.90
2018-01-24T20:49:24.660Z,100680.23
2018-01-24T20:52:02.307Z,100692.50
2018-01-24T20:54:37.929Z,100685.52
2018-01-24T20:57:16.087Z,100681.70
2018-01-24T20:59:51.935Z,100686.95
2018-01-24T21:02:30.864Z,100689.39
2018-01-24T21:05:06.899Z,100687.39
2018-01-24T21:07:43.391Z,100676.20
2018-01-24T21:10:16.776Z,100669.91
2018-01-24T21:12:50.148Z,100690.47
2018-01-24T21:15:24.140Z,100695.03
2018-01-24T21:17:56.568Z,100679.09
2018-01-24T21:20:28.710Z,100674.22
2018-01-24T21:23:01.260Z,100666.12
2018-01-24T21:25:36.599Z,100682.55
2018-01-24T21:28:12.927Z,100672.93
2018-01-24T21:33:00.560Z,100676.22
2018-01-24T21:36:15.655Z,100667.30
2018-01-24T21:38:49.752Z,100668.98
2018-01-24T21:41:39.354Z,100664.53
2018-01-24T21:44:10.428Z,100672.20
2018-01-24T21:46:42.651Z,100669.47
2018-01-24T21:49:17.430Z,100676.52
2018-01-24T21:51:48.754Z,100666.51
2018-01-24T21:54:21.444Z,100672.02
2018-01-24T21:56:52.882Z,100672.84
2018-01-24T21:59:25.266Z,100665.52
2018-01-24T22:01:57.591Z,100676.02
2018-01-24T22:04:32.872Z,100663.47
2018-01-24T22:07:04.150Z,100663.16
2018-01-24T22:09:35.617Z,100665.11
2018-01-24T22:12:06.473Z,100674.72
2018-01-24T22:14:40.647Z,100662.23
2018-01-24T22:17:14.241Z,100679.09
2018-01-24T22:19:45.648Z,100682.63
2018-01-24T22:22:27.638Z,100674.75
2018-01-24T22:24:58.197Z,100672.34
2018-01-24T22:27:41.152Z,100681.14
2018-01-24T22:30:14.086Z,100685.51
2018-01-24T22:32:44.509Z,100677.47
2018-01-24T22:35:17.160Z,100677.34
2018-01-24T22:37:48.648Z,100671.79
2018-01-24T22:40:19.997Z,100673.55
2018-01-24T22:42:52.478Z,100674.81
2018-01-24T22:45:24.276Z,100674.20
2018-01-24T22:47:55.247Z,100677.84
2018-01-24T22:50:25.783Z,100670.58
2018-01-24T22:52:56.857Z,100670.11
2018-01-24T22:55:29.108Z,100680.45
2018-01-24T22:58:00.077Z,100682.70
2018-01-24T23:00:31.482Z,100651.22
2018-01-24T23:03:02.859Z,100682.00
2018-01-24T23:05:34.719Z,100676.00
2018-01-24T23:08:07.135Z,100674.40
2018-01-24T23:10:37.968Z,100683.76
2018-01-24T23:13:08.878Z,100672.68
2018-01-24T23:15:40.144Z,100685.18
2018-01-24T23:18:12.305Z,100684.34
2018-01-24T23:20:43.595Z,100671.48
2018-01-24T23:23:14.484Z,100670.01
2018-01-24T23:25:45.635Z,100690.34
2018-01-24T23:28:16.858Z,100683.47
2018-01-24T23:30:47.673Z,100668.17
2018-01-24T23:33:18.547Z,100679.68
2018-01-24T23:35:49.492Z,100692.20
2018-01-24T23:38:20.959Z,100681.02
2018-01-24T23:40:51.683Z,100685.02
2018-01-24T23:43:22.449Z,100683.77
2018-01-24T23:45:53.012Z,100689.33
2018-01-24T23:51:05.190Z,100677.36
2018-01-24T23:53:36.751Z,100674.86
2018-01-24T23:56:07.847Z,100662.27
2018-01-24T23:58:39.059Z,100666.70
